sensor_id;sensor_type;location;lat;lon;timestamp;temperature;humidity
56322;DHT22;42227;6.376;-10.782;2022-09-27T00:00:58;24.80;99.90
56322;DHT22;42227;6.376;-10.782;2022-09-27T00:03:26;24.80;99.90
56322;DHT22;42227;6.376;-10.782;2022-09-27T00:06:02;24.80;99.90
56322;DHT22;42227;6.376;-10.782;2022-09-27T00:08:31;24.80;99.90
56322;DHT22;42227;6.376;-10.782;2022-09-27T00:10:59;24.90;99.90
56322;DHT22;42227;6.376;-10.782;2022-09-27T00:13:28;24.70;99.90
56322;DHT22;42227;6.376;-10.782;2022-09-27T00:15:56;24.70;99.90
56322;DHT22;42227;6.376;-10.782;2022-09-27T00:18:25;24.90;99.90
56322;DHT22;42227;6.376;-10.782;2022-09-27T00:20:53;25.00;99.90
56322;DHT22;42227;6.376;-10.782;2022-09-27T00:23:22;24.90;99.90
56322;DHT22;42227;6.376;-10.782;2022-09-27T00:25:57;24.90;99.90
56322;DHT22;42227;6.376;-10.782;2022-09-27T00:28:25;24.90;99.90
56322;DHT22;42227;6.376;-10.782;2022-09-27T00:30:54;24.90;99.90
56322;DHT22;42227;6.376;-10.782;2022-09-27T00:33:22;24.90;99.90
56322;DHT22;42227;6.376;-10.782;2022-09-27T00:35:51;24.90;99.90
56322;DHT22;42227;6.376;-10.782;2022-09-27T00:38:19;24.80;99.90
56322;DHT22;42227;6.376;-10.782;2022-09-27T00:40:47;24.80;99.90
56322;DHT22;42227;6.376;-10.782;2022-09-27T00:43:19;24.80;99.90
56322;DHT22;42227;6.376;-10.782;2022-09-27T00:45:55;24.90;99.90
56322;DHT22;42227;6.376;-10.782;2022-09-27T00:48:26;24.80;99.90
56322;DHT22;42227;6.376;-10.782;2022-09-27T00:50:57;25.00;99.90
56322;DHT22;42227;6.376;-10.782;2022-09-27T00:53:42;25.10;99.90
56322;DHT22;42227;6.376;-10.782;2022-09-27T00:56:12;25.00;99.90
56322;DHT22;42227;6.376;-10.782;2022-09-27T00:58:44;25.10;99.90
56322;DHT22;42227;6.376;-10.782;2022-09-27T01:01:13;25.00;99.90
56322;DHT22;42227;6.376;-10.782;2022-09-27T01:06:27;24.80;99.90
56322;DHT22;42227;6.376;-10.782;2022-09-27T01:08:55;24.70;99.90
56322;DHT22;42227;6.376;-10.782;2022-09-27T01:17:07;24.80;99.90
56322;DHT22;42227;6.376;-10.782;2022-09-27T01:33:26;24.80;99.90
56322;DHT22;42227;6.376;-10.782;2022-09-27T01:41:21;24.80;99.90
56322;DHT22;42227;6.376;-10.782;2022-09-27T01:47:08;24.80;99.90
56322;DHT22;42227;6.376;-10.782;2022-09-27T01:50:01;24.80;99.90
56322;DHT22;42227;6.376;-10.782;2022-09-27T01:52:35;24.70;99.90
56322;DHT22;42227;6.376;-10.782;2022-09-27T01:55:05;24.70;99.90
56322;DHT22;42227;6.376;-10.782;2022-09-27T01:58:07;24.70;99.90
56322;DHT22;42227;6.376;-10.782;2022-09-27T02:00:37;24.90;99.90
56322;DHT22;42227;6.376;-10.782;2022-09-27T02:03:08;24.90;99.90
56322;DHT22;42227;6.376;-10.782;2022-09-27T02:06:00;24.80;99.90
56322;DHT22;42227;6.376;-10.782;2022-09-27T02:11:34;24.70;99.90
56322;DHT22;42227;6.376;-10.782;2022-09-27T02:14:14;24.70;99.90
56322;DHT22;42227;6.376;-10.782;2022-09-27T02:16:57;24.70;99.90
56322;DHT22;42227;6.376;-10.782;2022-09-27T02:22:12;24.70;99.90
56322;DHT22;42227;6.376;-10.782;2022-09-27T02:27:54;24.90;99.90
56322;DHT22;42227;6.376;-10.782;2022-09-27T02:30:07;25.10;99.90
56322;DHT22;42227;6.376;-10.782;2022-09-27T02:32:38;25.20;99.90
56322;DHT22;42227;6.376;-10.782;2022-09-27T02:35:12;25.00;99.90
56322;DHT22;42227;6.376;-10.782;2022-09-27T02:37:42;24.90;99.90
56322;DHT22;42227;6.376;-10.782;2022-09-27T02:40:10;24.80;99.90
56322;DHT22;42227;6.376;-10.782;2022-09-27T02:42:39;24.70;99.90
56322;DHT22;42227;6.376;-10.782;2022-09-27T02:45:09;24.70;99.90
56322;DHT22;42227;6.376;-10.782;2022-09-27T02:50:26;24.60;99.90
56322;DHT22;42227;6.376;-10.782;2022-09-27T02:56:02;24.70;99.90
56322;DHT22;42227;6.376;-10.782;2022-09-27T03:02:03;24.80;99.90
56322;DHT22;42227;6.376;-10.782;2022-09-27T03:05:06;24.80;99.90
56322;DHT22;42227;6.376;-10.782;2022-09-27T03:07:34;24.70;99.90
56322;DHT22;42227;6.376;-10.782;2022-09-27T03:10:03;24.60;99.90
56322;DHT22;42227;6.376;-10.782;2022-09-27T03:12:31;24.60;99.90
56322;DHT22;42227;6.376;-10.782;2022-09-27T03:15:00;24.60;99.90
56322;DHT22;42227;6.376;-10.782;2022-09-27T03:18:00;24.60;99.90
56322;DHT22;42227;6.376;-10.782;2022-09-27T03:20:43;24.50;99.90
56322;DHT22;42227;6.376;-10.782;2022-09-27T03:23:14;24.50;99.90
56322;DHT22;42227;6.376;-10.782;2022-09-27T03:25:43;24.40;99.90
56322;DHT22;42227;6.376;-10.782;2022-09-27T03:28:11;24.50;99.90
56322;DHT22;42227;6.376;-10.782;2022-09-27T03:30:41;24.60;99.90
56322;DHT22;42227;6.376;-10.782;2022-09-27T03:33:11;24.70;99.90
56322;DHT22;42227;6.376;-10.782;2022-09-27T03:35:59;24.70;99.90
56322;DHT22;42227;6.376;-10.782;2022-09-27T03:38:27;24.50;99.90
56322;DHT22;42227;6.376;-10.782;2022-09-27T03:40:55;24.50;99.90
56322;DHT22;42227;6.376;-10.782;2022-09-27T03:43:23;24.40;99.90
56322;DHT22;42227;6.376;-10.782;2022-09-27T03:45:55;24.40;99.90
56322;DHT22;42227;6.376;-10.782;2022-09-27T03:48:23;24.30;99.90
56322;DHT22;42227;6.376;-10.782;2022-09-27T03:50:54;24.20;99.90
56322;DHT22;42227;6.376;-10.782;2022-09-27T03:53:22;24.20;99.90
56322;DHT22;42227;6.376;-10.782;2022-09-27T03:55:50;24.20;99.90
56322;DHT22;42227;6.376;-10.782;2022-09-27T03:58:18;24.10;99.90
56322;DHT22;42227;6.376;-10.782;2022-09-27T04:00:46;24.10;99.90
56322;DHT22;42227;6.376;-10.782;2022-09-27T04:03:14;24.30;99.90
56322;DHT22;42227;6.376;-10.782;2022-09-27T04:06:07;24.30;99.90
56322;DHT22;42227;6.376;-10.782;2022-09-27T04:08:39;24.40;99.90
56322;DHT22;42227;6.376;-10.782;2022-09-27T04:11:08;24.30;99.90
56322;DHT22;42227;6.376;-10.782;2022-09-27T04:13:38;24.20;99.90
56322;DHT22;42227;6.376;-10.782;2022-09-27T04:16:07;24.20;99.90
56322;DHT22;42227;6.376;-10.782;2022-09-27T04:18:53;24.20;99.90
56322;DHT22;42227;6.376;-10.782;2022-09-27T04:21:35;24.20;99.90
56322;DHT22;42227;6.376;-10.782;2022-09-27T04:24:05;24.20;99.90
56322;DHT22;42227;6.376;-10.782;2022-09-27T04:26:34;24.20;99.90
56322;DHT22;42227;6.376;-10.782;2022-09-27T04:29:09;24.20;99.90
56322;DHT22;42227;6.376;-10.782;2022-09-27T04:31:41;24.20;99.90
56322;DHT22;42227;6.376;-10.782;2022-09-27T04:34:11;24.30;99.90
56322;DHT22;42227;6.376;-10.782;2022-09-27T04:36:39;24.40;99.90
56322;DHT22;42227;6.376;-10.782;2022-09-27T04:39:11;24.40;99.90
56322;DHT22;42227;6.376;-10.782;2022-09-27T04:41:42;24.50;99.90
56322;DHT22;42227;6.376;-10.782;2022-09-27T04:44:10;24.30;99.90
56322;DHT22;42227;6.376;-10.782;2022-09-27T04:46:41;24.20;99.90
56322;DHT22;42227;6.376;-10.782;2022-09-27T04:49:10;24.20;99.90
56322;DHT22;42227;6.376;-10.782;2022-09-27T04:51:38;24.10;99.90
56322;DHT22;42227;6.376;-10.782;2022-09-27T04:54:06;24.10;99.90
56322;DHT22;42227;6.376;-10.782;2022-09-27T04:56:49;24.10;99.90
56322;DHT22;42227;6.376;-10.782;2022-09-27T04:59:18;24.10;99.90
56322;DHT22;42227;6.376;-10.782;2022-09-27T05:01:46;24.00;99.90
56322;DHT22;42227;6.376;-10.782;2022-09-27T05:04:31;24.10;99.90
56322;DHT22;42227;6.376;-10.782;2022-09-27T05:07:00;24.20;99.90
56322;DHT22;42227;6.376;-10.782;2022-09-27T05:09:34;24.30;99.90
56322;DHT22;42227;6.376;-10.782;2022-09-27T05:12:02;24.50;99.90
56322;DHT22;42227;6.376;-10.782;2022-09-27T05:14:45;24.30;99.90
56322;DHT22;42227;6.376;-10.782;2022-09-27T05:17:36;24.10;99.90
56322;DHT22;42227;6.376;-10.782;2022-09-27T05:20:16;24.10;99.90
56322;DHT22;42227;6.376;-10.782;2022-09-27T05:23:19;24.10;99.90
56322;DHT22;42227;6.376;-10.782;2022-09-27T05:25:47;24.10;99.90
56322;DHT22;42227;6.376;-10.782;2022-09-27T05:28:15;24.10;99.90
56322;DHT22;42227;6.376;-10.782;2022-09-27T05:30:43;24.10;99.90
56322;DHT22;42227;6.376;-10.782;2022-09-27T05:33:16;24.10;99.90
56322;DHT22;42227;6.376;-10.782;2022-09-27T05:35:51;24.10;99.90
56322;DHT22;42227;6.376;-10.782;2022-09-27T05:38:22;24.20;99.90
56322;DHT22;42227;6.376;-10.782;2022-09-27T05:40:53;24.30;99.90
56322;DHT22;42227;6.376;-10.782;2022-09-27T05:43:22;24.30;99.90
56322;DHT22;42227;6.376;-10.782;2022-09-27T05:45:51;24.40;99.90
56322;DHT22;42227;6.376;-10.782;2022-09-27T05:48:20;24.30;99.90
56322;DHT22;42227;6.376;-10.782;2022-09-27T05:50:55;24.30;99.90
56322;DHT22;42227;6.376;-10.782;2022-09-27T05:53:23;24.20;99.90
56322;DHT22;42227;6.376;-10.782;2022-09-27T05:55:52;24.20;99.90
56322;DHT22;42227;6.376;-10.782;2022-09-27T05:58:29;24.10;99.90
56322;DHT22;42227;6.376;-10.782;2022-09-27T06:01:11;24.10;99.90
56322;DHT22;42227;6.376;-10.782;2022-09-27T06:03:59;24.10;99.90
56322;DHT22;42227;6.376;-10.782;2022-09-27T06:06:49;24.10;99.90
56322;DHT22;42227;6.376;-10.782;2022-09-27T06:09:17;24.10;99.90
56322;DHT22;42227;6.376;-10.782;2022-09-27T06:11:46;24.20;99.90
56322;DHT22;42227;6.376;-10.782;2022-09-27T06:14:16;24.30;99.90
56322;DHT22;42227;6.376;-10.782;2022-09-27T06:16:59;24.40;99.90
56322;DHT22;42227;6.376;-10.782;2022-09-27T06:19:31;24.50;99.90
56322;DHT22;42227;6.376;-10.782;2022-09-27T06:21:59;24.40;99.90
56322;DHT22;42227;6.376;-10.782;2022-09-27T06:24:36;24.30;99.90
56322;DHT22;42227;6.376;-10.782;2022-09-27T06:27:11;24.20;99.90
56322;DHT22;42227;6.376;-10.782;2022-09-27T06:29:52;24.20;99.90
56322;DHT22;42227;6.376;-10.782;2022-09-27T06:32:34;24.20;99.90
56322;DHT22;42227;6.376;-10.782;2022-09-27T06:35:18;24.20;99.90
56322;DHT22;42227;6.376;-10.782;2022-09-27T06:37:46;24.20;99.90
56322;DHT22;42227;6.376;-10.782;2022-09-27T06:40:14;24.10;99.90
56322;DHT22;42227;6.376;-10.782;2022-09-27T06:43:07;24.10;99.90
56322;DHT22;42227;6.376;-10.782;2022-09-27T06:46:01;24.20;99.90
56322;DHT22;42227;6.376;-10.782;2022-09-27T06:48:43;24.50;99.90
56322;DHT22;42227;6.376;-10.782;2022-09-27T06:51:15;24.70;99.90
56322;DHT22;42227;6.376;-10.782;2022-09-27T06:53:43;24.70;99.90
56322;DHT22;42227;6.376;-10.782;2022-09-27T06:56:12;24.70;99.90
56322;DHT22;42227;6.376;-10.782;2022-09-27T06:58:52;24.80;99.90
56322;DHT22;42227;6.376;-10.782;2022-09-27T07:01:43;24.90;99.90
56322;DHT22;42227;6.376;-10.782;2022-09-27T07:04:14;25.20;99.90
56322;DHT22;42227;6.376;-10.782;2022-09-27T07:07:11;26.20;99.90
56322;DHT22;42227;6.376;-10.782;2022-09-27T07:09:43;26.00;99.90
56322;DHT22;42227;6.376;-10.782;2022-09-27T07:12:11;28.10;99.90
56322;DHT22;42227;6.376;-10.782;2022-09-27T07:14:41;27.80;99.90
56322;DHT22;42227;6.376;-10.782;2022-09-27T07:17:14;27.20;99.90
56322;DHT22;42227;6.376;-10.782;2022-09-27T07:19:47;27.00;99.90
56322;DHT22;42227;6.376;-10.782;2022-09-27T07:22:16;27.40;99.90
56322;DHT22;42227;6.376;-10.782;2022-09-27T07:24:49;27.90;99.90
56322;DHT22;42227;6.376;-10.782;2022-09-27T07:27:19;27.90;99.90
56322;DHT22;42227;6.376;-10.782;2022-09-27T07:29:47;27.90;99.90
56322;DHT22;42227;6.376;-10.782;2022-09-27T07:32:15;27.40;99.90
56322;DHT22;42227;6.376;-10.782;2022-09-27T07:34:44;26.90;99.90
56322;DHT22;42227;6.376;-10.782;2022-09-27T07:37:12;26.60;99.90
56322;DHT22;42227;6.376;-10.782;2022-09-27T07:39:40;26.50;99.90
56322;DHT22;42227;6.376;-10.782;2022-09-27T07:49:29;26.30;99.90
56322;DHT22;42227;6.376;-10.782;2022-09-27T07:52:11;26.50;99.90
56322;DHT22;42227;6.376;-10.782;2022-09-27T07:54:50;26.40;99.90
56322;DHT22;42227;6.376;-10.782;2022-09-27T07:57:29;26.40;99.90
56322;DHT22;42227;6.376;-10.782;2022-09-27T07:59:59;26.60;99.90
56322;DHT22;42227;6.376;-10.782;2022-09-27T08:02:28;26.90;99.90
56322;DHT22;42227;6.376;-10.782;2022-09-27T08:04:56;27.50;99.90
56322;DHT22;42227;6.376;-10.782;2022-09-27T08:07:26;28.10;99.90
56322;DHT22;42227;6.376;-10.782;2022-09-27T08:09:55;28.60;99.90
56322;DHT22;42227;6.376;-10.782;2022-09-27T08:12:23;28.70;99.90
56322;DHT22;42227;6.376;-10.782;2022-09-27T08:14:51;28.30;99.90
56322;DHT22;42227;6.376;-10.782;2022-09-27T08:17:20;27.90;99.90
56322;DHT22;42227;6.376;-10.782;2022-09-27T08:20:06;28.10;99.90
56322;DHT22;42227;6.376;-10.782;2022-09-27T08:22:57;28.30;99.90
56322;DHT22;42227;6.376;-10.782;2022-09-27T08:25:33;28.90;99.90
56322;DHT22;42227;6.376;-10.782;2022-09-27T08:28:21;29.90;99.90
56322;DHT22;42227;6.376;-10.782;2022-09-27T08:31:08;30.60;99.90
56322;DHT22;42227;6.376;-10.782;2022-09-27T08:33:36;30.40;99.90
56322;DHT22;42227;6.376;-10.782;2022-09-27T08:36:09;30.10;99.90
56322;DHT22;42227;6.376;-10.782;2022-09-27T08:38:37;29.60;99.90
56322;DHT22;42227;6.376;-10.782;2022-09-27T08:41:11;29.10;99.90
56322;DHT22;42227;6.376;-10.782;2022-09-27T08:46:19;29.20;99.90
56322;DHT22;42227;6.376;-10.782;2022-09-27T08:48:51;29.30;99.90
56322;DHT22;42227;6.376;-10.782;2022-09-27T08:51:23;29.50;99.90
56322;DHT22;42227;6.376;-10.782;2022-09-27T08:53:55;29.30;99.90
56322;DHT22;42227;6.376;-10.782;2022-09-27T08:56:24;29.30;99.90
56322;DHT22;42227;6.376;-10.782;2022-09-27T09:01:27;29.70;99.90
56322;DHT22;42227;6.376;-10.782;2022-09-27T09:04:01;30.00;99.90
56322;DHT22;42227;6.376;-10.782;2022-09-27T09:12:58;31.90;99.90
56322;DHT22;42227;6.376;-10.782;2022-09-27T09:17:36;31.80;99.90
56322;DHT22;42227;6.376;-10.782;2022-09-27T09:23:18;31.40;99.90
56322;DHT22;42227;6.376;-10.782;2022-09-27T09:28:48;31.20;99.90
56322;DHT22;42227;6.376;-10.782;2022-09-27T09:34:12;31.50;99.90
56322;DHT22;42227;6.376;-10.782;2022-09-27T09:39:21;30.40;99.90
56322;DHT22;42227;6.376;-10.782;2022-09-27T09:44:27;29.90;99.90
56322;DHT22;42227;6.376;-10.782;2022-09-27T09:47:01;29.50;99.90
56322;DHT22;42227;6.376;-10.782;2022-09-27T09:52:01;29.60;99.90
56322;DHT22;42227;6.376;-10.782;2022-09-27T09:54:42;30.20;99.90
56322;DHT22;42227;6.376;-10.782;2022-09-27T09:57:22;30.40;99.90
56322;DHT22;42227;6.376;-10.782;2022-09-27T09:59:57;30.60;99.90
56322;DHT22;42227;6.376;-10.782;2022-09-27T10:02:36;31.20;99.90
56322;DHT22;42227;6.376;-10.782;2022-09-27T10:05:12;31.60;99.90
56322;DHT22;42227;6.376;-10.782;2022-09-27T10:07:41;31.70;99.90
56322;DHT22;42227;6.376;-10.782;2022-09-27T10:10:14;31.80;99.90
56322;DHT22;42227;6.376;-10.782;2022-09-27T10:13:18;31.80;99.90
56322;DHT22;42227;6.376;-10.782;2022-09-27T10:16:02;32.30;99.90
56322;DHT22;42227;6.376;-10.782;2022-09-27T10:18:34;32.50;99.90
56322;DHT22;42227;6.376;-10.782;2022-09-27T10:21:12;32.10;99.90
56322;DHT22;42227;6.376;-10.782;2022-09-27T10:24:02;32.20;99.90
56322;DHT22;42227;6.376;-10.782;2022-09-27T10:26:59;32.00;99.90
56322;DHT22;42227;6.376;-10.782;2022-09-27T10:29:33;31.90;99.90
56322;DHT22;42227;6.376;-10.782;2022-09-27T10:32:21;31.90;99.90
56322;DHT22;42227;6.376;-10.782;2022-09-27T10:34:56;31.90;99.90
56322;DHT22;42227;6.376;-10.782;2022-09-27T10:37:50;31.90;99.90
56322;DHT22;42227;6.376;-10.782;2022-09-27T10:40:29;31.70;99.90
56322;DHT22;42227;6.376;-10.782;2022-09-27T10:42:58;31.90;99.90
56322;DHT22;42227;6.376;-10.782;2022-09-27T10:45:44;32.10;99.90
56322;DHT22;42227;6.376;-10.782;2022-09-27T10:48:19;32.30;99.90
56322;DHT22;42227;6.376;-10.782;2022-09-27T10:50:56;32.60;99.90
56322;DHT22;42227;6.376;-10.782;2022-09-27T10:53:37;31.90;99.90
56322;DHT22;42227;6.376;-10.782;2022-09-27T10:56:23;31.80;99.90
56322;DHT22;42227;6.376;-10.782;2022-09-27T10:58:53;31.50;99.90
56322;DHT22;42227;6.376;-10.782;2022-09-27T11:01:23;32.00;99.90
56322;DHT22;42227;6.376;-10.782;2022-09-27T11:04:03;32.00;99.90
56322;DHT22;42227;6.376;-10.782;2022-09-27T11:06:33;31.70;99.90
56322;DHT22;42227;6.376;-10.782;2022-09-27T11:11:47;32.00;99.90
56322;DHT22;42227;6.376;-10.782;2022-09-27T11:14:17;32.10;99.90
56322;DHT22;42227;6.376;-10.782;2022-09-27T11:22:00;31.20;99.90
56322;DHT22;42227;6.376;-10.782;2022-09-27T11:24:38;31.20;99.90
56322;DHT22;42227;6.376;-10.782;2022-09-27T11:35:25;31.60;99.90
56322;DHT22;42227;6.376;-10.782;2022-09-27T11:39:01;31.50;99.90
56322;DHT22;42227;6.376;-10.782;2022-09-27T11:41:20;31.30;99.90
56322;DHT22;42227;6.376;-10.782;2022-09-27T11:46:38;30.90;99.90
56322;DHT22;42227;6.376;-10.782;2022-09-27T11:57:07;31.30;99.90
56322;DHT22;42227;6.376;-10.782;2022-09-27T12:10:48;30.40;99.90
56322;DHT22;42227;6.376;-10.782;2022-09-27T12:13:21;30.50;99.90
56322;DHT22;42227;6.376;-10.782;2022-09-27T12:15:51;30.40;99.90
56322;DHT22;42227;6.376;-10.782;2022-09-27T12:18:29;30.30;99.90
56322;DHT22;42227;6.376;-10.782;2022-09-27T12:21:03;30.60;99.90
56322;DHT22;42227;6.376;-10.782;2022-09-27T12:23:42;30.40;99.90
56322;DHT22;42227;6.376;-10.782;2022-09-27T12:26:34;30.10;99.90
56322;DHT22;42227;6.376;-10.782;2022-09-27T12:31:58;31.00;99.90
56322;DHT22;42227;6.376;-10.782;2022-09-27T12:37:04;31.90;99.90
56322;DHT22;42227;6.376;-10.782;2022-09-27T12:40:39;31.80;99.90
56322;DHT22;42227;6.376;-10.782;2022-09-27T12:42:41;31.60;99.90
56322;DHT22;42227;6.376;-10.782;2022-09-27T12:48:05;30.80;99.90
56322;DHT22;42227;6.376;-10.782;2022-09-27T12:56:06;30.90;99.90
56322;DHT22;42227;6.376;-10.782;2022-09-27T13:09:12;30.80;99.90
56322;DHT22;42227;6.376;-10.782;2022-09-27T13:11:59;30.80;99.90
56322;DHT22;42227;6.376;-10.782;2022-09-27T13:14:31;30.70;99.90
56322;DHT22;42227;6.376;-10.782;2022-09-27T13:17:01;30.80;99.90
56322;DHT22;42227;6.376;-10.782;2022-09-27T13:22:08;31.00;99.90
56322;DHT22;42227;6.376;-10.782;2022-09-27T13:24:59;31.20;99.90
56322;DHT22;42227;6.376;-10.782;2022-09-27T13:27:45;31.00;99.90
56322;DHT22;42227;6.376;-10.782;2022-09-27T13:38:30;29.90;99.90
56322;DHT22;42227;6.376;-10.782;2022-09-27T13:41:12;30.00;99.90
56322;DHT22;42227;6.376;-10.782;2022-09-27T13:54:57;29.80;99.90
56322;DHT22;42227;6.376;-10.782;2022-09-27T13:57:50;30.30;99.90
56322;DHT22;42227;6.376;-10.782;2022-09-27T14:00:24;30.50;99.90
56322;DHT22;42227;6.376;-10.782;2022-09-27T14:05:45;30.60;99.90
56322;DHT22;42227;6.376;-10.782;2022-09-27T14:08:22;30.60;99.90
56322;DHT22;42227;6.376;-10.782;2022-09-27T14:10:54;30.80;99.90
56322;DHT22;42227;6.376;-10.782;2022-09-27T14:13:22;30.50;99.90
56322;DHT22;42227;6.376;-10.782;2022-09-27T14:16:03;30.30;99.90
56322;DHT22;42227;6.376;-10.782;2022-09-27T14:18:39;30.00;99.90
56322;DHT22;42227;6.376;-10.782;2022-09-27T14:24:22;29.60;99.90
56322;DHT22;42227;6.376;-10.782;2022-09-27T14:29:43;29.80;99.90
56322;DHT22;42227;6.376;-10.782;2022-09-27T14:32:15;29.70;99.90
56322;DHT22;42227;6.376;-10.782;2022-09-27T14:37:33;30.00;99.90
56322;DHT22;42227;6.376;-10.782;2022-09-27T14:40:17;30.40;99.90
56322;DHT22;42227;6.376;-10.782;2022-09-27T14:42:46;30.70;99.90
56322;DHT22;42227;6.376;-10.782;2022-09-27T14:47:47;30.70;99.90
56322;DHT22;42227;6.376;-10.782;2022-09-27T14:50:39;31.20;99.90
56322;DHT22;42227;6.376;-10.782;2022-09-27T14:53:18;31.20;99.90
56322;DHT22;42227;6.376;-10.782;2022-09-27T14:55:46;31.20;99.90
56322;DHT22;42227;6.376;-10.782;2022-09-27T14:58:14;31.20;99.90
56322;DHT22;42227;6.376;-10.782;2022-09-27T15:01:02;31.40;99.90
56322;DHT22;42227;6.376;-10.782;2022-09-27T15:03:30;31.20;99.90
56322;DHT22;42227;6.376;-10.782;2022-09-27T15:06:06;30.80;99.90
56322;DHT22;42227;6.376;-10.782;2022-09-27T15:08:34;31.00;99.90
56322;DHT22;42227;6.376;-10.782;2022-09-27T15:11:03;31.40;99.90
56322;DHT22;42227;6.376;-10.782;2022-09-27T15:13:31;31.40;99.90
56322;DHT22;42227;6.376;-10.782;2022-09-27T15:16:12;31.20;99.90
56322;DHT22;42227;6.376;-10.782;2022-09-27T15:18:42;30.90;99.90
56322;DHT22;42227;6.376;-10.782;2022-09-27T15:21:12;30.80;99.90
56322;DHT22;42227;6.376;-10.782;2022-09-27T15:23:42;30.30;99.90
56322;DHT22;42227;6.376;-10.782;2022-09-27T15:26:12;30.30;99.90
56322;DHT22;42227;6.376;-10.782;2022-09-27T15:28:42;30.60;99.90
56322;DHT22;42227;6.376;-10.782;2022-09-27T15:31:10;30.60;99.90
56322;DHT22;42227;6.376;-10.782;2022-09-27T15:33:38;30.60;99.90
56322;DHT22;42227;6.376;-10.782;2022-09-27T15:36:08;30.50;99.90
56322;DHT22;42227;6.376;-10.782;2022-09-27T15:38:40;30.50;99.90
56322;DHT22;42227;6.376;-10.782;2022-09-27T15:41:09;30.50;99.90
56322;DHT22;42227;6.376;-10.782;2022-09-27T15:43:39;30.60;99.90
56322;DHT22;42227;6.376;-10.782;2022-09-27T15:51:52;30.50;99.90
56322;DHT22;42227;6.376;-10.782;2022-09-27T15:54:21;30.60;99.90
56322;DHT22;42227;6.376;-10.782;2022-09-27T15:56:50;30.00;99.90
56322;DHT22;42227;6.376;-10.782;2022-09-27T15:59:22;30.10;99.90
56322;DHT22;42227;6.376;-10.782;2022-09-27T16:01:53;30.00;99.90
56322;DHT22;42227;6.376;-10.782;2022-09-27T16:04:21;30.00;99.90
56322;DHT22;42227;6.376;-10.782;2022-09-27T16:06:49;30.00;99.90
56322;DHT22;42227;6.376;-10.782;2022-09-27T16:09:18;29.90;99.90
56322;DHT22;42227;6.376;-10.782;2022-09-27T16:11:46;29.80;99.90
56322;DHT22;42227;6.376;-10.782;2022-09-27T16:14:15;30.30;99.90
56322;DHT22;42227;6.376;-10.782;2022-09-27T16:16:44;30.50;99.90
56322;DHT22;42227;6.376;-10.782;2022-09-27T16:19:12;30.00;99.90
56322;DHT22;42227;6.376;-10.782;2022-09-27T16:21:41;30.20;99.90
56322;DHT22;42227;6.376;-10.782;2022-09-27T16:24:09;30.30;99.90
56322;DHT22;42227;6.376;-10.782;2022-09-27T16:26:37;30.30;99.90
56322;DHT22;42227;6.376;-10.782;2022-09-27T16:29:12;29.90;99.90
56322;DHT22;42227;6.376;-10.782;2022-09-27T16:31:41;29.50;99.90
56322;DHT22;42227;6.376;-10.782;2022-09-27T16:34:09;29.70;99.90
56322;DHT22;42227;6.376;-10.782;2022-09-27T16:36:37;29.90;99.90
56322;DHT22;42227;6.376;-10.782;2022-09-27T16:39:06;29.70;99.90
56322;DHT22;42227;6.376;-10.782;2022-09-27T16:41:34;29.80;99.90
56322;DHT22;42227;6.376;-10.782;2022-09-27T16:44:06;30.10;99.90
56322;DHT22;42227;6.376;-10.782;2022-09-27T16:46:34;30.20;99.90
56322;DHT22;42227;6.376;-10.782;2022-09-27T16:49:02;30.20;99.90
56322;DHT22;42227;6.376;-10.782;2022-09-27T16:51:30;30.20;99.90
56322;DHT22;42227;6.376;-10.782;2022-09-27T16:53:58;30.30;99.90
56322;DHT22;42227;6.376;-10.782;2022-09-27T16:56:25;30.20;99.90
56322;DHT22;42227;6.376;-10.782;2022-09-27T16:58:53;29.70;99.90
56322;DHT22;42227;6.376;-10.782;2022-09-27T17:01:21;29.70;99.90
56322;DHT22;42227;6.376;-10.782;2022-09-27T17:03:50;29.70;99.90
56322;DHT22;42227;6.376;-10.782;2022-09-27T17:06:23;29.60;99.90
56322;DHT22;42227;6.376;-10.782;2022-09-27T17:08:51;29.80;99.90
56322;DHT22;42227;6.376;-10.782;2022-09-27T17:11:19;29.80;99.90
56322;DHT22;42227;6.376;-10.782;2022-09-27T17:13:47;29.90;99.90
56322;DHT22;42227;6.376;-10.782;2022-09-27T17:16:15;29.90;99.90
56322;DHT22;42227;6.376;-10.782;2022-09-27T17:18:43;29.70;99.90
56322;DHT22;42227;6.376;-10.782;2022-09-27T17:21:11;29.60;99.90
56322;DHT22;42227;6.376;-10.782;2022-09-27T17:23:39;29.60;99.90
56322;DHT22;42227;6.376;-10.782;2022-09-27T17:26:17;29.60;99.90
56322;DHT22;42227;6.376;-10.782;2022-09-27T17:28:45;29.40;99.90
56322;DHT22;42227;6.376;-10.782;2022-09-27T17:31:14;29.10;99.90
56322;DHT22;42227;6.376;-10.782;2022-09-27T17:33:43;29.10;99.90
56322;DHT22;42227;6.376;-10.782;2022-09-27T17:36:12;29.00;99.90
56322;DHT22;42227;6.376;-10.782;2022-09-27T17:38:40;28.70;99.90
56322;DHT22;42227;6.376;-10.782;2022-09-27T17:41:09;28.50;99.90
56322;DHT22;42227;6.376;-10.782;2022-09-27T17:43:38;28.60;99.90
56322;DHT22;42227;6.376;-10.782;2022-09-27T17:46:07;28.50;99.90
56322;DHT22;42227;6.376;-10.782;2022-09-27T17:48:36;28.20;99.90
56322;DHT22;42227;6.376;-10.782;2022-09-27T17:51:03;27.90;99.90
56322;DHT22;42227;6.376;-10.782;2022-09-27T17:53:32;27.70;99.90
56322;DHT22;42227;6.376;-10.782;2022-09-27T17:56:02;27.90;99.90
56322;DHT22;42227;6.376;-10.782;2022-09-27T17:58:30;27.70;99.90
56322;DHT22;42227;6.376;-10.782;2022-09-27T18:01:04;27.70;99.90
56322;DHT22;42227;6.376;-10.782;2022-09-27T18:03:33;27.70;99.90
56322;DHT22;42227;6.376;-10.782;2022-09-27T18:06:07;27.80;99.90
56322;DHT22;42227;6.376;-10.782;2022-09-27T18:08:35;27.80;99.90
56322;DHT22;42227;6.376;-10.782;2022-09-27T18:11:07;27.80;99.90
56322;DHT22;42227;6.376;-10.782;2022-09-27T18:13:35;27.90;99.90
56322;DHT22;42227;6.376;-10.782;2022-09-27T18:16:04;27.80;99.90
56322;DHT22;42227;6.376;-10.782;2022-09-27T18:18:32;27.50;99.90
56322;DHT22;42227;6.376;-10.782;2022-09-27T18:21:00;27.50;99.90
56322;DHT22;42227;6.376;-10.782;2022-09-27T18:23:29;27.60;99.90
56322;DHT22;42227;6.376;-10.782;2022-09-27T18:25:57;27.80;99.90
56322;DHT22;42227;6.376;-10.782;2022-09-27T18:28:26;27.60;99.90
56322;DHT22;42227;6.376;-10.782;2022-09-27T18:30:54;27.50;99.90
56322;DHT22;42227;6.376;-10.782;2022-09-27T18:33:22;27.60;99.90
56322;DHT22;42227;6.376;-10.782;2022-09-27T18:35:50;27.80;99.90
56322;DHT22;42227;6.376;-10.782;2022-09-27T18:38:18;27.70;99.90
56322;DHT22;42227;6.376;-10.782;2022-09-27T18:40:46;27.70;99.90
56322;DHT22;42227;6.376;-10.782;2022-09-27T18:43:23;27.50;99.90
56322;DHT22;42227;6.376;-10.782;2022-09-27T18:45:51;27.20;99.90
56322;DHT22;42227;6.376;-10.782;2022-09-27T18:48:19;27.20;99.90
56322;DHT22;42227;6.376;-10.782;2022-09-27T18:50:47;27.40;99.90
56322;DHT22;42227;6.376;-10.782;2022-09-27T18:53:15;27.50;99.90
56322;DHT22;42227;6.376;-10.782;2022-09-27T18:55:42;27.30;99.90
56322;DHT22;42227;6.376;-10.782;2022-09-27T18:58:10;27.20;99.90
56322;DHT22;42227;6.376;-10.782;2022-09-27T19:00:38;27.20;99.90
56322;DHT22;42227;6.376;-10.782;2022-09-27T19:03:07;27.50;99.90